sensor_id;sensor_type;location;lat;lon;timestamp;temperature;humidity
13354;DHT22;6746;50.892;4.064;2023-04-16T00:02:19;8.20;99.90
13354;DHT22;6746;50.892;4.064;2023-04-16T00:04:59;8.10;99.90
13354;DHT22;6746;50.892;4.064;2023-04-16T00:07:38;8.20;99.90
13354;DHT22;6746;50.892;4.064;2023-04-16T00:10:19;8.20;99.90
13354;DHT22;6746;50.892;4.064;2023-04-16T00:12:57;8.20;99.90
13354;DHT22;6746;50.892;4.064;2023-04-16T00:15:35;8.20;99.90
13354;DHT22;6746;50.892;4.064;2023-04-16T00:18:13;8.20;99.90
13354;DHT22;6746;50.892;4.064;2023-04-16T00:21:01;8.20;99.90
13354;DHT22;6746;50.892;4.064;2023-04-16T00:23:48;8.30;99.90
13354;DHT22;6746;50.892;4.064;2023-04-16T00:26:26;8.30;99.90
13354;DHT22;6746;50.892;4.064;2023-04-16T00:29:05;8.20;99.90
13354;DHT22;6746;50.892;4.064;2023-04-16T00:31:43;8.30;99.90
13354;DHT22;6746;50.892;4.064;2023-04-16T00:34:21;8.30;99.90
13354;DHT22;6746;50.892;4.064;2023-04-16T00:36:59;8.30;99.90
13354;DHT22;6746;50.892;4.064;2023-04-16T00:39:37;8.30;99.90
13354;DHT22;6746;50.892;4.064;2023-04-16T00:42:16;8.30;99.90
13354;DHT22;6746;50.892;4.064;2023-04-16T00:44:59;8.30;99.90
13354;DHT22;6746;50.892;4.064;2023-04-16T00:47:37;8.30;99.90
13354;DHT22;6746;50.892;4.064;2023-04-16T00:50:18;8.30;99.90
13354;DHT22;6746;50.892;4.064;2023-04-16T00:52:56;8.30;99.90
13354;DHT22;6746;50.892;4.064;2023-04-16T00:55:34;8.30;99.90
13354;DHT22;6746;50.892;4.064;2023-04-16T00:58:13;8.30;99.90
13354;DHT22;6746;50.892;4.064;2023-04-16T01:00:54;8.30;99.90
13354;DHT22;6746;50.892;4.064;2023-04-16T01:03:38;8.30;99.90
13354;DHT22;6746;50.892;4.064;2023-04-16T01:06:16;8.30;99.90
13354;DHT22;6746;50.892;4.064;2023-04-16T01:08:54;8.30;99.90
13354;DHT22;6746;50.892;4.064;2023-04-16T01:11:37;8.30;99.90
13354;DHT22;6746;50.892;4.064;2023-04-16T01:14:15;8.30;99.90
13354;DHT22;6746;50.892;4.064;2023-04-16T01:16:56;8.30;99.90
13354;DHT22;6746;50.892;4.064;2023-04-16T01:19:34;8.30;99.90
13354;DHT22;6746;50.892;4.064;2023-04-16T01:22:17;8.30;99.90
13354;DHT22;6746;50.892;4.064;2023-04-16T01:24:55;8.40;99.90
13354;DHT22;6746;50.892;4.064;2023-04-16T01:27:33;8.40;99.90
13354;DHT22;6746;50.892;4.064;2023-04-16T01:30:12;8.30;99.90
13354;DHT22;6746;50.892;4.064;2023-04-16T01:32:53;8.30;99.90
13354;DHT22;6746;50.892;4.064;2023-04-16T01:35:31;8.30;99.90
13354;DHT22;6746;50.892;4.064;2023-04-16T01:38:09;8.30;99.90
13354;DHT22;6746;50.892;4.064;2023-04-16T01:40:47;8.30;99.90
13354;DHT22;6746;50.892;4.064;2023-04-16T01:43:26;8.30;99.90
13354;DHT22;6746;50.892;4.064;2023-04-16T01:46:11;8.30;99.90
13354;DHT22;6746;50.892;4.064;2023-04-16T01:48:44;8.30;99.90
13354;DHT22;6746;50.892;4.064;2023-04-16T01:51:23;8.30;99.90
13354;DHT22;6746;50.892;4.064;2023-04-16T01:54:01;8.30;99.90
13354;DHT22;6746;50.892;4.064;2023-04-16T01:56:39;8.30;99.90
13354;DHT22;6746;50.892;4.064;2023-04-16T01:59:20;8.30;99.90
13354;DHT22;6746;50.892;4.064;2023-04-16T02:02:09;8.40;99.90
13354;DHT22;6746;50.892;4.064;2023-04-16T02:04:40;8.40;99.90
13354;DHT22;6746;50.892;4.064;2023-04-16T02:07:17;8.30;99.90
13354;DHT22;6746;50.892;4.064;2023-04-16T02:09:58;8.40;99.90
13354;DHT22;6746;50.892;4.064;2023-04-16T02:12:36;8.40;99.90
13354;DHT22;6746;50.892;4.064;2023-04-16T02:15:19;8.40;99.90
13354;DHT22;6746;50.892;4.064;2023-04-16T02:17:58;8.40;99.90
13354;DHT22;6746;50.892;4.064;2023-04-16T02:20:40;8.40;99.90
13354;DHT22;6746;50.892;4.064;2023-04-16T02:23:17;8.40;99.90
13354;DHT22;6746;50.892;4.064;2023-04-16T02:25:55;8.40;99.90
13354;DHT22;6746;50.892;4.064;2023-04-16T02:28:34;8.40;99.90
13354;DHT22;6746;50.892;4.064;2023-04-16T02:31:12;8.40;99.90
13354;DHT22;6746;50.892;4.064;2023-04-16T02:33:50;8.40;99.90
13354;DHT22;6746;50.892;4.064;2023-04-16T02:36:29;8.50;99.90
13354;DHT22;6746;50.892;4.064;2023-04-16T02:39:07;8.40;99.90
13354;DHT22;6746;50.892;4.064;2023-04-16T02:41:45;8.50;99.90
13354;DHT22;6746;50.892;4.064;2023-04-16T02:44:23;8.40;99.90
13354;DHT22;6746;50.892;4.064;2023-04-16T02:47:02;8.50;99.90
13354;DHT22;6746;50.892;4.064;2023-04-16T02:49:40;8.50;99.90
13354;DHT22;6746;50.892;4.064;2023-04-16T02:52:23;8.40;99.90
13354;DHT22;6746;50.892;4.064;2023-04-16T02:55:01;8.40;99.90
13354;DHT22;6746;50.892;4.064;2023-04-16T02:57:45;8.40;99.90
13354;DHT22;6746;50.892;4.064;2023-04-16T03:00:23;8.40;99.90
13354;DHT22;6746;50.892;4.064;2023-04-16T03:03:11;8.40;99.90
13354;DHT22;6746;50.892;4.064;2023-04-16T03:05:54;8.40;99.90
13354;DHT22;6746;50.892;4.064;2023-04-16T03:08:33;8.40;99.90
13354;DHT22;6746;50.892;4.064;2023-04-16T03:11:11;8.40;99.90
13354;DHT22;6746;50.892;4.064;2023-04-16T03:13:49;8.40;99.90
13354;DHT22;6746;50.892;4.064;2023-04-16T03:16:27;8.40;99.90
13354;DHT22;6746;50.892;4.064;2023-04-16T03:19:06;8.40;99.90
13354;DHT22;6746;50.892;4.064;2023-04-16T03:21:46;8.40;99.90
13354;DHT22;6746;50.892;4.064;2023-04-16T03:24:24;8.40;99.90
13354;DHT22;6746;50.892;4.064;2023-04-16T03:27:05;8.40;99.90
13354;DHT22;6746;50.892;4.064;2023-04-16T03:29:44;8.40;99.90
13354;DHT22;6746;50.892;4.064;2023-04-16T03:32:27;8.40;99.90
13354;DHT22;6746;50.892;4.064;2023-04-16T03:35:05;8.40;99.90
13354;DHT22;6746;50.892;4.064;2023-04-16T03:37:43;8.40;99.90
13354;DHT22;6746;50.892;4.064;2023-04-16T03:40:21;8.40;99.90
13354;DHT22;6746;50.892;4.064;2023-04-16T03:43:02;8.40;99.90
13354;DHT22;6746;50.892;4.064;2023-04-16T03:45:44;8.40;99.90
13354;DHT22;6746;50.892;4.064;2023-04-16T03:48:21;8.40;99.90
13354;DHT22;6746;50.892;4.064;2023-04-16T03:50:59;8.40;99.90
13354;DHT22;6746;50.892;4.064;2023-04-16T03:53:37;8.40;99.90
13354;DHT22;6746;50.892;4.064;2023-04-16T03:56:16;8.40;99.90
13354;DHT22;6746;50.892;4.064;2023-04-16T03:59:02;8.40;99.90
13354;DHT22;6746;50.892;4.064;2023-04-16T04:01:40;8.40;99.90
13354;DHT22;6746;50.892;4.064;2023-04-16T04:04:28;8.30;99.90
13354;DHT22;6746;50.892;4.064;2023-04-16T04:07:07;8.30;99.90
13354;DHT22;6746;50.892;4.064;2023-04-16T04:09:45;8.40;99.90
13354;DHT22;6746;50.892;4.064;2023-04-16T04:12:23;8.30;99.90
13354;DHT22;6746;50.892;4.064;2023-04-16T04:15:02;8.30;99.90
13354;DHT22;6746;50.892;4.064;2023-04-16T04:17:49;8.30;99.90
13354;DHT22;6746;50.892;4.064;2023-04-16T04:20:31;8.30;99.90
13354;DHT22;6746;50.892;4.064;2023-04-16T04:23:09;8.30;99.90
13354;DHT22;6746;50.892;4.064;2023-04-16T04:25:47;8.40;99.90
13354;DHT22;6746;50.892;4.064;2023-04-16T04:28:25;8.30;99.90
13354;DHT22;6746;50.892;4.064;2023-04-16T04:31:04;8.30;99.90
13354;DHT22;6746;50.892;4.064;2023-04-16T04:33:42;8.30;99.90
13354;DHT22;6746;50.892;4.064;2023-04-16T04:36:20;8.40;99.90
13354;DHT22;6746;50.892;4.064;2023-04-16T04:38:58;8.40;99.90
13354;DHT22;6746;50.892;4.064;2023-04-16T04:41:46;8.40;99.90
13354;DHT22;6746;50.892;4.064;2023-04-16T04:44:25;8.40;99.90
13354;DHT22;6746;50.892;4.064;2023-04-16T04:47:03;8.40;99.90
13354;DHT22;6746;50.892;4.064;2023-04-16T04:49:41;8.40;99.90
13354;DHT22;6746;50.892;4.064;2023-04-16T04:52:19;8.30;99.90
13354;DHT22;6746;50.892;4.064;2023-04-16T04:55:07;8.30;99.90
13354;DHT22;6746;50.892;4.064;2023-04-16T04:57:46;8.40;99.90
13354;DHT22;6746;50.892;4.064;2023-04-16T05:00:24;8.40;99.90
13354;DHT22;6746;50.892;4.064;2023-04-16T05:03:05;8.40;99.90
13354;DHT22;6746;50.892;4.064;2023-04-16T05:05:43;8.40;99.90
13354;DHT22;6746;50.892;4.064;2023-04-16T05:08:21;8.40;99.90
13354;DHT22;6746;50.892;4.064;2023-04-16T05:10:52;8.30;99.90
13354;DHT22;6746;50.892;4.064;2023-04-16T05:13:26;8.40;99.90
13354;DHT22;6746;50.892;4.064;2023-04-16T05:15:55;8.40;99.90
13354;DHT22;6746;50.892;4.064;2023-04-16T05:18:26;8.40;99.90
13354;DHT22;6746;50.892;4.064;2023-04-16T05:20:55;8.40;99.90
13354;DHT22;6746;50.892;4.064;2023-04-16T05:23:32;8.40;99.90
13354;DHT22;6746;50.892;4.064;2023-04-16T05:26:01;8.40;99.90
13354;DHT22;6746;50.892;4.064;2023-04-16T05:28:37;8.40;99.90
13354;DHT22;6746;50.892;4.064;2023-04-16T05:31:05;8.40;99.90
13354;DHT22;6746;50.892;4.064;2023-04-16T05:33:44;8.40;99.90
13354;DHT22;6746;50.892;4.064;2023-04-16T05:36:20;8.50;99.90
13354;DHT22;6746;50.892;4.064;2023-04-16T05:38:49;8.40;99.90
13354;DHT22;6746;50.892;4.064;2023-04-16T05:41:26;8.40;99.90
13354;DHT22;6746;50.892;4.064;2023-04-16T05:43:55;8.40;99.90
13354;DHT22;6746;50.892;4.064;2023-04-16T05:46:26;8.40;99.90
13354;DHT22;6746;50.892;4.064;2023-04-16T05:48:55;8.40;99.90
13354;DHT22;6746;50.892;4.064;2023-04-16T05:51:34;8.40;99.90
13354;DHT22;6746;50.892;4.064;2023-04-16T05:54:05;8.40;99.90
13354;DHT22;6746;50.892;4.064;2023-04-16T05:56:34;8.40;99.90
13354;DHT22;6746;50.892;4.064;2023-04-16T05:59:06;8.40;99.90
13354;DHT22;6746;50.892;4.064;2023-04-16T06:01:35;8.40;99.90
13354;DHT22;6746;50.892;4.064;2023-04-16T06:04:07;8.40;99.90
13354;DHT22;6746;50.892;4.064;2023-04-16T06:06:36;8.40;99.90
13354;DHT22;6746;50.892;4.064;2023-04-16T06:09:12;8.30;99.90
13354;DHT22;6746;50.892;4.064;2023-04-16T06:11:41;8.30;99.90
13354;DHT22;6746;50.892;4.064;2023-04-16T06:14:09;8.40;99.90
13354;DHT22;6746;50.892;4.064;2023-04-16T06:16:38;8.40;99.90
13354;DHT22;6746;50.892;4.064;2023-04-16T06:19:15;8.40;99.90
13354;DHT22;6746;50.892;4.064;2023-04-16T06:21:44;8.40;99.90
13354;DHT22;6746;50.892;4.064;2023-04-16T06:24:22;8.40;99.90
13354;DHT22;6746;50.892;4.064;2023-04-16T06:27:00;8.40;99.90
13354;DHT22;6746;50.892;4.064;2023-04-16T06:29:38;8.40;99.90
13354;DHT22;6746;50.892;4.064;2023-04-16T06:32:12;8.40;99.90
13354;DHT22;6746;50.892;4.064;2023-04-16T06:34:41;8.40;99.90
13354;DHT22;6746;50.892;4.064;2023-04-16T06:37:19;8.50;99.90
13354;DHT22;6746;50.892;4.064;2023-04-16T06:40:03;8.50;99.90
13354;DHT22;6746;50.892;4.064;2023-04-16T06:42:41;8.50;99.90
13354;DHT22;6746;50.892;4.064;2023-04-16T06:45:14;8.60;99.90
13354;DHT22;6746;50.892;4.064;2023-04-16T06:47:44;8.70;99.90
13354;DHT22;6746;50.892;4.064;2023-04-16T06:50:23;8.60;99.90
13354;DHT22;6746;50.892;4.064;2023-04-16T06:52:54;8.70;99.90
13354;DHT22;6746;50.892;4.064;2023-04-16T06:55:22;8.60;99.90
13354;DHT22;6746;50.892;4.064;2023-04-16T06:58:02;8.60;99.90
13354;DHT22;6746;50.892;4.064;2023-04-16T07:00:30;8.60;99.90
13354;DHT22;6746;50.892;4.064;2023-04-16T07:02:59;8.60;99.90
13354;DHT22;6746;50.892;4.064;2023-04-16T07:05:28;8.60;99.90
13354;DHT22;6746;50.892;4.064;2023-04-16T07:08:05;8.70;99.90
13354;DHT22;6746;50.892;4.064;2023-04-16T07:10:34;8.70;99.90
13354;DHT22;6746;50.892;4.064;2023-04-16T07:13:12;8.70;99.90
13354;DHT22;6746;50.892;4.064;2023-04-16T07:15:49;8.70;99.90
13354;DHT22;6746;50.892;4.064;2023-04-16T07:18:17;8.70;99.90
13354;DHT22;6746;50.892;4.064;2023-04-16T07:20:54;8.70;99.90
13354;DHT22;6746;50.892;4.064;2023-04-16T07:23:23;8.80;99.90
13354;DHT22;6746;50.892;4.064;2023-04-16T07:26:01;8.90;99.90
13354;DHT22;6746;50.892;4.064;2023-04-16T07:28:32;8.80;99.90
13354;DHT22;6746;50.892;4.064;2023-04-16T07:31:01;9.00;99.90
13354;DHT22;6746;50.892;4.064;2023-04-16T07:33:38;9.10;99.90
13354;DHT22;6746;50.892;4.064;2023-04-16T07:36:07;9.20;99.90
13354;DHT22;6746;50.892;4.064;2023-04-16T07:38:36;9.20;99.90
13354;DHT22;6746;50.892;4.064;2023-04-16T07:41:05;9.20;99.90
13354;DHT22;6746;50.892;4.064;2023-04-16T07:43:41;9.20;99.90
13354;DHT22;6746;50.892;4.064;2023-04-16T07:46:10;9.20;99.90
13354;DHT22;6746;50.892;4.064;2023-04-16T07:48:47;9.20;99.90
13354;DHT22;6746;50.892;4.064;2023-04-16T07:51:15;9.10;99.90
13354;DHT22;6746;50.892;4.064;2023-04-16T07:53:44;9.20;99.90
13354;DHT22;6746;50.892;4.064;2023-04-16T07:56:13;9.20;99.90
13354;DHT22;6746;50.892;4.064;2023-04-16T07:58:42;9.20;99.90
13354;DHT22;6746;50.892;4.064;2023-04-16T08:01:11;9.40;99.90
13354;DHT22;6746;50.892;4.064;2023-04-16T08:03:40;9.40;99.90
13354;DHT22;6746;50.892;4.064;2023-04-16T08:06:09;9.40;99.90
13354;DHT22;6746;50.892;4.064;2023-04-16T08:08:46;9.50;99.90
13354;DHT22;6746;50.892;4.064;2023-04-16T08:11:14;9.50;99.90
13354;DHT22;6746;50.892;4.064;2023-04-16T08:13:46;9.60;99.90
13354;DHT22;6746;50.892;4.064;2023-04-16T08:16:15;9.70;99.90
13354;DHT22;6746;50.892;4.064;2023-04-16T08:18:53;9.70;99.90
13354;DHT22;6746;50.892;4.064;2023-04-16T08:21:32;9.70;99.90
13354;DHT22;6746;50.892;4.064;2023-04-16T08:24:00;9.60;99.90
13354;DHT22;6746;50.892;4.064;2023-04-16T08:26:29;9.50;99.90
13354;DHT22;6746;50.892;4.064;2023-04-16T08:28:57;9.50;99.90
13354;DHT22;6746;50.892;4.064;2023-04-16T08:31:26;9.60;99.90
13354;DHT22;6746;50.892;4.064;2023-04-16T08:33:55;9.70;99.90
13354;DHT22;6746;50.892;4.064;2023-04-16T08:36:24;9.60;99.90
13354;DHT22;6746;50.892;4.064;2023-04-16T08:38:56;9.50;99.90
13354;DHT22;6746;50.892;4.064;2023-04-16T08:41:25;9.50;99.90
13354;DHT22;6746;50.892;4.064;2023-04-16T08:43:54;9.60;99.90
13354;DHT22;6746;50.892;4.064;2023-04-16T08:46:23;9.70;99.90
13354;DHT22;6746;50.892;4.064;2023-04-16T08:48:53;9.60;99.90
13354;DHT22;6746;50.892;4.064;2023-04-16T08:51:21;9.50;99.90
13354;DHT22;6746;50.892;4.064;2023-04-16T08:54:02;9.50;99.90
13354;DHT22;6746;50.892;4.064;2023-04-16T08:56:30;9.60;99.90
13354;DHT22;6746;50.892;4.064;2023-04-16T08:58:59;9.60;99.90
13354;DHT22;6746;50.892;4.064;2023-04-16T09:01:37;9.60;99.90
13354;DHT22;6746;50.892;4.064;2023-04-16T09:04:06;9.70;99.90
13354;DHT22;6746;50.892;4.064;2023-04-16T09:06:35;9.70;99.90
13354;DHT22;6746;50.892;4.064;2023-04-16T09:09:06;9.70;99.90
13354;DHT22;6746;50.892;4.064;2023-04-16T09:11:35;9.70;99.90
13354;DHT22;6746;50.892;4.064;2023-04-16T09:14:08;9.70;99.90
13354;DHT22;6746;50.892;4.064;2023-04-16T09:16:36;9.80;99.90
13354;DHT22;6746;50.892;4.064;2023-04-16T09:19:15;9.80;99.90
13354;DHT22;6746;50.892;4.064;2023-04-16T09:21:44;9.80;99.90
13354;DHT22;6746;50.892;4.064;2023-04-16T09:24:12;9.90;99.90
13354;DHT22;6746;50.892;4.064;2023-04-16T09:26:41;9.90;99.90
13354;DHT22;6746;50.892;4.064;2023-04-16T09:29:10;10.00;99.90
13354;DHT22;6746;50.892;4.064;2023-04-16T09:32:02;9.90;99.90
13354;DHT22;6746;50.892;4.064;2023-04-16T09:34:34;9.90;99.90
13354;DHT22;6746;50.892;4.064;2023-04-16T09:37:14;10.00;99.90
13354;DHT22;6746;50.892;4.064;2023-04-16T09:39:42;10.00;99.90
13354;DHT22;6746;50.892;4.064;2023-04-16T09:42:22;10.00;99.90
13354;DHT22;6746;50.892;4.064;2023-04-16T09:44:52;10.10;99.90
13354;DHT22;6746;50.892;4.064;2023-04-16T09:47:21;10.10;99.90
13354;DHT22;6746;50.892;4.064;2023-04-16T09:49:57;10.20;99.90
13354;DHT22;6746;50.892;4.064;2023-04-16T09:52:26;10.20;99.90
13354;DHT22;6746;50.892;4.064;2023-04-16T09:54:55;10.00;99.90
13354;DHT22;6746;50.892;4.064;2023-04-16T09:57:24;10.00;99.90
13354;DHT22;6746;50.892;4.064;2023-04-16T10:00:03;10.10;99.90
13354;DHT22;6746;50.892;4.064;2023-04-16T10:02:31;10.20;99.90
13354;DHT22;6746;50.892;4.064;2023-04-16T10:05:03;10.20;99.90
13354;DHT22;6746;50.892;4.064;2023-04-16T10:07:35;10.10;99.90
13354;DHT22;6746;50.892;4.064;2023-04-16T10:10:03;10.00;99.90
13354;DHT22;6746;50.892;4.064;2023-04-16T10:12:37;9.90;99.90
13354;DHT22;6746;50.892;4.064;2023-04-16T10:15:06;9.90;99.90
13354;DHT22;6746;50.892;4.064;2023-04-16T10:17:38;10.00;99.90
13354;DHT22;6746;50.892;4.064;2023-04-16T10:20:07;9.90;99.90
13354;DHT22;6746;50.892;4.064;2023-04-16T10:22:46;9.90;99.90
13354;DHT22;6746;50.892;4.064;2023-04-16T10:25:22;9.90;99.90
13354;DHT22;6746;50.892;4.064;2023-04-16T10:27:51;9.80;99.90
13354;DHT22;6746;50.892;4.064;2023-04-16T10:30:24;9.80;99.90
13354;DHT22;6746;50.892;4.064;2023-04-16T10:32:53;9.90;99.90
13354;DHT22;6746;50.892;4.064;2023-04-16T10:35:30;9.90;99.90
13354;DHT22;6746;50.892;4.064;2023-04-16T10:41:03;9.90;99.90
13354;DHT22;6746;50.892;4.064;2023-04-16T10:43:33;9.90;99.90
13354;DHT22;6746;50.892;4.064;2023-04-16T10:48:59;10.00;99.90
13354;DHT22;6746;50.892;4.064;2023-04-16T10:51:34;10.00;99.90
13354;DHT22;6746;50.892;4.064;2023-04-16T10:56:44;10.00;99.90
13354;DHT22;6746;50.892;4.064;2023-04-16T10:59:16;10.00;99.90
13354;DHT22;6746;50.892;4.064;2023-04-16T11:01:42;10.00;99.90
13354;DHT22;6746;50.892;4.064;2023-04-16T11:09:44;10.10;99.90
13354;DHT22;6746;50.892;4.064;2023-04-16T11:12:45;10.20;99.90
13354;DHT22;6746;50.892;4.064;2023-04-16T11:15:21;10.10;99.90
13354;DHT22;6746;50.892;4.064;2023-04-16T11:17:50;10.20;99.90
13354;DHT22;6746;50.892;4.064;2023-04-16T11:20:22;10.20;99.90
13354;DHT22;6746;50.892;4.064;2023-04-16T11:22:54;10.20;99.90
13354;DHT22;6746;50.892;4.064;2023-04-16T11:25:22;10.20;99.90
13354;DHT22;6746;50.892;4.064;2023-04-16T11:28:00;10.20;99.90
13354;DHT22;6746;50.892;4.064;2023-04-16T11:30:38;10.20;99.90
13354;DHT22;6746;50.892;4.064;2023-04-16T11:33:12;10.10;99.90
13354;DHT22;6746;50.892;4.064;2023-04-16T11:35:41;10.10;99.90
13354;DHT22;6746;50.892;4.064;2023-04-16T11:38:20;10.10;99.90
13354;DHT22;6746;50.892;4.064;2023-04-16T11:41:08;10.10;99.90
13354;DHT22;6746;50.892;4.064;2023-04-16T11:43:56;10.10;99.90
13354;DHT22;6746;50.892;4.064;2023-04-16T11:46:37;10.20;99.90
13354;DHT22;6746;50.892;4.064;2023-04-16T11:49:15;10.30;99.90
13354;DHT22;6746;50.892;4.064;2023-04-16T11:51:53;10.40;99.90
13354;DHT22;6746;50.892;4.064;2023-04-16T11:54:31;10.50;99.90
13354;DHT22;6746;50.892;4.064;2023-04-16T11:57:03;10.60;99.90
13354;DHT22;6746;50.892;4.064;2023-04-16T11:59:31;10.70;99.90
13354;DHT22;6746;50.892;4.064;2023-04-16T12:02:00;10.80;99.90
13354;DHT22;6746;50.892;4.064;2023-04-16T12:04:32;10.70;99.90
13354;DHT22;6746;50.892;4.064;2023-04-16T12:09:44;10.70;99.90
13354;DHT22;6746;50.892;4.064;2023-04-16T12:12:26;10.80;99.90
13354;DHT22;6746;50.892;4.064;2023-04-16T12:15:02;10.70;99.90
13354;DHT22;6746;50.892;4.064;2023-04-16T12:17:31;10.80;99.90
13354;DHT22;6746;50.892;4.064;2023-04-16T12:19:59;10.90;99.90
13354;DHT22;6746;50.892;4.064;2023-04-16T12:22:31;11.10;99.90
13354;DHT22;6746;50.892;4.064;2023-04-16T12:25:09;11.30;99.90
13354;DHT22;6746;50.892;4.064;2023-04-16T12:27:41;11.30;99.90
13354;DHT22;6746;50.892;4.064;2023-04-16T12:30:22;11.20;99.90
13354;DHT22;6746;50.892;4.064;2023-04-16T12:33:13;11.00;99.90
13354;DHT22;6746;50.892;4.064;2023-04-16T12:36:00;11.30;99.90
13354;DHT22;6746;50.892;4.064;2023-04-16T12:38:38;11.30;99.90
13354;DHT22;6746;50.892;4.064;2023-04-16T12:41:17;11.20;99.90
13354;DHT22;6746;50.892;4.064;2023-04-16T12:44:04;11.10;99.90
13354;DHT22;6746;50.892;4.064;2023-04-16T12:46:50;11.30;99.90
13354;DHT22;6746;50.892;4.064;2023-04-16T12:49:29;11.20;99.90
13354;DHT22;6746;50.892;4.064;2023-04-16T12:52:07;11.10;99.90
13354;DHT22;6746;50.892;4.064;2023-04-16T12:54:45;11.30;99.90
13354;DHT22;6746;50.892;4.064;2023-04-16T12:57:23;11.30;99.90
13354;DHT22;6746;50.892;4.064;2023-04-16T13:00:01;11.20;99.90
13354;DHT22;6746;50.892;4.064;2023-04-16T13:02:40;11.30;99.90
13354;DHT22;6746;50.892;4.064;2023-04-16T13:05:18;11.30;99.90
13354;DHT22;6746;50.892;4.064;2023-04-16T13:07:46;11.30;99.90
13354;DHT22;6746;50.892;4.064;2023-04-16T13:10:15;11.10;99.90
13354;DHT22;6746;50.892;4.064;2023-04-16T13:12:47;11.00;99.90
13354;DHT22;6746;50.892;4.064;2023-04-16T13:15:16;10.90;99.90
13354;DHT22;6746;50.892;4.064;2023-04-16T13:17:45;11.00;99.90
13354;DHT22;6746;50.892;4.064;2023-04-16T13:20:14;11.00;99.90
13354;DHT22;6746;50.892;4.064;2023-04-16T13:22:53;11.10;99.90
13354;DHT22;6746;50.892;4.064;2023-04-16T13:25:41;11.10;99.90
13354;DHT22;6746;50.892;4.064;2023-04-16T13:28:19;11.10;99.90
13354;DHT22;6746;50.892;4.064;2023-04-16T13:30:57;11.30;99.90
13354;DHT22;6746;50.892;4.064;2023-04-16T13:33:35;11.30;99.90
13354;DHT22;6746;50.892;4.064;2023-04-16T13:36:13;11.20;99.90
13354;DHT22;6746;50.892;4.064;2023-04-16T13:39:01;11.50;99.90
13354;DHT22;6746;50.892;4.064;2023-04-16T13:41:33;11.60;99.90
13354;DHT22;6746;50.892;4.064;2023-04-16T13:44:02;11.60;99.90
13354;DHT22;6746;50.892;4.064;2023-04-16T13:46:40;11.70;99.90
13354;DHT22;6746;50.892;4.064;2023-04-16T13:49:17;11.60;99.90
13354;DHT22;6746;50.892;4.064;2023-04-16T13:51:45;11.70;99.90
13354;DHT22;6746;50.892;4.064;2023-04-16T13:54:14;11.60;99.90
13354;DHT22;6746;50.892;4.064;2023-04-16T13:56:43;11.90;99.90
13354;DHT22;6746;50.892;4.064;2023-04-16T13:59:12;12.00;99.90
13354;DHT22;6746;50.892;4.064;2023-04-16T14:01:42;11.90;99.90
13354;DHT22;6746;50.892;4.064;2023-04-16T14:04:21;11.90;99.90
13354;DHT22;6746;50.892;4.064;2023-04-16T14:06:56;12.20;99.90
13354;DHT22;6746;50.892;4.064;2023-04-16T14:09:25;12.20;99.90
13354;DHT22;6746;50.892;4.064;2023-04-16T14:12:03;12.10;99.90
13354;DHT22;6746;50.892;4.064;2023-04-16T14:14:42;12.10;99.90
13354;DHT22;6746;50.892;4.064;2023-04-16T14:17:15;12.10;99.90
13354;DHT22;6746;50.892;4.064;2023-04-16T14:19:44;12.10;99.90
13354;DHT22;6746;50.892;4.064;2023-04-16T14:22:22;12.00;99.90
13354;DHT22;6746;50.892;4.064;2023-04-16T14:25:00;12.00;99.90
13354;DHT22;6746;50.892;4.064;2023-04-16T14:27:38;12.10;99.90
13354;DHT22;6746;50.892;4.064;2023-04-16T14:30:12;12.00;99.90
13354;DHT22;6746;50.892;4.064;2023-04-16T14:32:40;12.20;99.90
13354;DHT22;6746;50.892;4.064;2023-04-16T14:35:19;12.30;99.90
13354;DHT22;6746;50.892;4.064;2023-04-16T14:37:57;12.40;99.90
13354;DHT22;6746;50.892;4.064;2023-04-16T14:40:30;12.40;99.90
13354;DHT22;6746;50.892;4.064;2023-04-16T14:42:59;12.20;99.90
13354;DHT22;6746;50.892;4.064;2023-04-16T14:45:31;12.40;99.90
13354;DHT22;6746;50.892;4.064;2023-04-16T14:48:00;12.50;99.90
13354;DHT22;6746;50.892;4.064;2023-04-16T14:50:38;12.40;99.90
13354;DHT22;6746;50.892;4.064;2023-04-16T14:53:16;12.30;99.90
13354;DHT22;6746;50.892;4.064;2023-04-16T14:55:53;12.20;99.90
13354;DHT22;6746;50.892;4.064;2023-04-16T14:58:21;12.20;99.90
13354;DHT22;6746;50.892;4.064;2023-04-16T15:01:00;12.40;99.90
13354;DHT22;6746;50.892;4.064;2023-04-16T15:03:34;12.50;99.90
13354;DHT22;6746;50.892;4.064;2023-04-16T15:06:02;12.60;99.90
13354;DHT22;6746;50.892;4.064;2023-04-16T15:08:40;12.60;99.90
13354;DHT22;6746;50.892;4.064;2023-04-16T15:11:19;12.60;99.90
13354;DHT22;6746;50.892;4.064;2023-04-16T15:13:59;12.50;99.90
13354;DHT22;6746;50.892;4.064;2023-04-16T15:16:33;12.60;99.90
13354;DHT22;6746;50.892;4.064;2023-04-16T15:19:02;12.60;99.90
13354;DHT22;6746;50.892;4.064;2023-04-16T15:21:40;12.60;99.90
13354;DHT22;6746;50.892;4.064;2023-04-16T15:24:09;12.60;99.90
13354;DHT22;6746;50.892;4.064;2023-04-16T15:26:47;12.60;99.90
13354;DHT22;6746;50.892;4.064;2023-04-16T15:29:23;12.70;99.90
13354;DHT22;6746;50.892;4.064;2023-04-16T15:31:52;12.60;99.90
13354;DHT22;6746;50.892;4.064;2023-04-16T15:34:31;12.50;99.90
13354;DHT22;6746;50.892;4.064;2023-04-16T15:37:09;12.40;99.90
13354;DHT22;6746;50.892;4.064;2023-04-16T15:39:47;12.30;99.90
13354;DHT22;6746;50.892;4.064;2023-04-16T15:42:16;12.20;99.90
13354;DHT22;6746;50.892;4.064;2023-04-16T15:44:45;12.30;99.90
13354;DHT22;6746;50.892;4.064;2023-04-16T15:47:23;12.20;99.90
13354;DHT22;6746;50.892;4.064;2023-04-16T15:49:52;12.30;99.90
13354;DHT22;6746;50.892;4.064;2023-04-16T15:52:21;12.30;99.90
13354;DHT22;6746;50.892;4.064;2023-04-16T15:54:59;12.10;99.90
13354;DHT22;6746;50.892;4.064;2023-04-16T15:57:31;11.90;99.90
13354;DHT22;6746;50.892;4.064;2023-04-16T15:59:59;11.90;99.90
13354;DHT22;6746;50.892;4.064;2023-04-16T16:02:28;12.00;99.90
13354;DHT22;6746;50.892;4.064;2023-04-16T16:04:57;12.20;99.90
13354;DHT22;6746;50.892;4.064;2023-04-16T16:07:26;12.10;99.90
13354;DHT22;6746;50.892;4.064;2023-04-16T16:09:55;12.20;99.90
13354;DHT22;6746;50.892;4.064;2023-04-16T16:12:24;12.20;99.90
13354;DHT22;6746;50.892;4.064;2023-04-16T16:14:54;12.30;99.90
13354;DHT22;6746;50.892;4.064;2023-04-16T16:17:32;12.20;99.90
13354;DHT22;6746;50.892;4.064;2023-04-16T16:20:10;12.10;99.90
13354;DHT22;6746;50.892;4.064;2023-04-16T16:22:48;12.00;99.90
13354;DHT22;6746;50.892;4.064;2023-04-16T16:25:27;12.00;99.90
13354;DHT22;6746;50.892;4.064;2023-04-16T16:28:15;12.00;99.90
13354;DHT22;6746;50.892;4.064;2023-04-16T16:30:53;12.10;99.90
13354;DHT22;6746;50.892;4.064;2023-04-16T16:33:31;12.10;99.90
13354;DHT22;6746;50.892;4.064;2023-04-16T16:36:09;11.90;99.90
13354;DHT22;6746;50.892;4.064;2023-04-16T16:38:47;11.90;99.90
13354;DHT22;6746;50.892;4.064;2023-04-16T16:41:25;11.90;99.90
13354;DHT22;6746;50.892;4.064;2023-04-16T16:44:04;12.00;99.90
13354;DHT22;6746;50.892;4.064;2023-04-16T16:46:37;12.00;99.90
13354;DHT22;6746;50.892;4.064;2023-04-16T16:49:06;12.20;99.90
13354;DHT22;6746;50.892;4.064;2023-04-16T16:51:40;12.20;99.90
13354;DHT22;6746;50.892;4.064;2023-04-16T16:54:09;12.30;99.90
13354;DHT22;6746;50.892;4.064;2023-04-16T16:56:42;12.20;99.90
13354;DHT22;6746;50.892;4.064;2023-04-16T16:59:11;12.10;99.90
13354;DHT22;6746;50.892;4.064;2023-04-16T17:01:40;12.00;99.90
13354;DHT22;6746;50.892;4.064;2023-04-16T17:04:13;12.00;99.90